Buel, New York
Current Conditions -  °F | °C
As of 1:35 AM on Wednesday 26 Nov 2014 (Local Time) from KNY0 Reporting Station
Overcast Overcast  
Wind Chill: -2°   Ceiling: 3700
Heat Index:   Visibility: 10mi
Dew Point: -4°   Wind: 7mph
Humidity: 71%   Direction: 290°WNW
Pressure: 30.16"   Gusts: NA
Location:  42.8548°N, 74.5942°W
Report Text: KNY0 260635Z AUTO 29006KT 10SM OVC037 01/M04 A3016 RMK AO2 T00121036
Loading
Personal Weather Stations






























Interactive Weather Map New forecast layout! Learn more

10-Day Weather Forecast

Advertisements
Track Severe Weather on mobile